WBKWWBKS

Guest
Details From WBKW - Tawau
To WBKS - Sandakan
Flight Number -
Tags generated
Created
Modified
Stats Distance 96 nm / 178 km
Max Altitude 400 ft / 122 m
Waypoints 3
Social Downloads 0
Likes 0
Share VATSIM

Download

Looking for another format? Having issues loading an existing format? Contact us
Advertisement - Login to hide

Notes

Basic altitude profile: - Ascent Rate: 2500ft/min - Ascent Speed: 250kts - Cruise Altitude: 35000ft - Cruise Speed: 420kts - Descent Rate: 1500ft/min - Descent Speed: 250kts Options: - Use NATs: yes - Use PACOTS: yes - Use low airways: yes - Use high airways: yes

Route

WBKW VTW WBKS

ID Type Via Altitude Latitude Longitude Leg Dist Tot Dist Heading (true) Name
O WBKW APT - 0 ft / 0 m 4.31337˚ 118.12195˚ - 0 nm - Tawau
VTW VOR - 400 ft / 122 m 4.32452˚ 118.13991˚ 1 nm 1 nm 58° / 58° TAWAU VOR-DME
O WBKS APT - 0 ft / 0 m 5.90090˚ 118.05949˚ 94 nm 96 nm 357° / 357° Sandakan

Altitude Profile

Advertisement - Login to hide

WBKW

Details ICAO WBKW (TWU)
Name Tawau
Region Brunei and Malaysia
Timezone Asia/Kuching (UTC+8.0)
Stats Elevation 57 ft / 17 m (AMSL)
Location 4.313370° 118.121955°
Runways 1
Magnetic Variation 0.273° W

METAR

WBKW 160400Z 16006KT 100V230 9999 FEW017 SCT140 BKN220 31/26 Q1010

Decode

TAF

Not found

Departure Runways

ID Width Length Bearing (true) Bearing (mag) Surface Threshold Offset Overrun Length
06 155 ft / 47 m 8,826 ft / 2,690 m 58.02° 58.29° Asphalt 0 ft / 0 m 195 ft / 59 m
24 155 ft / 47 m 8,826 ft / 2,690 m 238.02° 238.29° Asphalt 0 ft / 0 m 195 ft / 59 m

WBKS

Details ICAO WBKS (SDK)
Name Sandakan
Region Brunei and Malaysia
Timezone Asia/Kuching (UTC+8.0)
Stats Elevation 46 ft / 14 m (AMSL)
Location 5.900897° 118.059486°
Runways 1
Magnetic Variation 0.504° W

METAR

WBKS 160400Z 05005KT 010V080 9999 SCT016 BKN270 30/25 Q1009

Decode

TAF

Not found

Destination Runways

ID Width Length Bearing (true) Bearing (mag) Surface Threshold Offset Overrun Length
08 151 ft / 46 m 7,010 ft / 2,137 m 80.56° 81.06° Asphalt 0 ft / 0 m 198 ft / 60 m
26 151 ft / 46 m 7,010 ft / 2,137 m 260.56° 261.06° Asphalt 0 ft / 0 m 198 ft / 60 m

Approach Navaids

Runway Type Ident Frequency Range Bearing (true) Bearing (mag) Slope Elevation
08 Localiser ISKN 109.30 MHz 18 nm / 33 km 80.48° 80.98° - 46 ft / 14 m (AMSL)
08 Glidescope ISKN 109.30 MHz 10 nm / 19 km 80.56° 81.07° 3.00° 46 ft / 14 m (AMSL)
08 DME ISKN 109.30 MHz 18 nm / 33 km - - - 46 ft / 14 m (AMSL)

Popular Alternatives